This is the latest recevied weather packets stored in our database for station/object BMCB-19. If no packets are shown the sender has not sent any weather packets the latest 10 day(s).
| Time | Temp. | Humidity | Pressure | Rain* | Wind** | Luminosity | Snow |
|---|---|---|---|---|---|---|---|
| 1777732855 | 22.22° C | 57% | 1016.5 hPa | 0 mm | - | 322 W/m² | - |
| 1777728056 | 22.22° C | 56% | 1017.6 hPa | 0 mm | - | 102 W/m² | - |
| 1777722057 | 19.44° C | 68% | 1019.3 hPa | 0 mm | - | 624 W/m² | - |
| 1777720857 | 17.78° C | 74% | 1019.7 hPa | 0 mm | - | 539 W/m² | - |
| 1777720258 | 18.33° C | 73% | 1019.7 hPa | 0 mm | - | 302 W/m² | - |
| 1777714858 | 20.56° C | 63% | 1019.8 hPa | 0 mm | - | 771 W/m² | - |
| 1777714258 | 20° C | 64% | 1019.9 hPa | 0 mm | - | 836 W/m² | - |
| 1777713057 | 20° C | 63% | 1020 hPa | 0 mm | - | 747 W/m² | - |
| 1777709460 | 18.33° C | 66% | 1020.2 hPa | 0 mm | - | 714 W/m² | - |
| 1777708859 | 17.78° C | 67% | 1020.2 hPa | 0 mm | - | 632 W/m² | - |
| 1777706440 | 16.67° C | 68% | 1020.5 hPa | 0 mm | - | 571 W/m² | - |
| 1777704627 | 15.56° C | 70% | 1020.8 hPa | 0 mm | - | 363 W/m² | - |
| 1777701639 | 14.44° C | 71% | 1021 hPa | 0 mm | - | 180 W/m² | - |
| 1777699857 | 13.33° C | 70% | 1021.1 hPa | 0 mm | - | 98 W/m² | - |
| 1777693850 | 12.78° C | 62% | 1021.2 hPa | 0 mm | - | 0 W/m² | - |
| 1777690848 | 13.89° C | 57% | 1021.6 hPa | 0 mm | - | 0 W/m² | - |
| 1777690251 | 13.89° C | 57% | 1021.6 hPa | 0 mm | - | 0 W/m² | - |
| 1777689052 | 13.89° C | 58% | 1021.6 hPa | 0 mm | - | 0 W/m² | - |
| 1777687253 | 14.44° C | 56% | 1021.5 hPa | 0 mm | - | 0 W/m² | - |
| 1777685452 | 14.44° C | 49% | 1021.7 hPa | 0 mm | - | 0 W/m² | - |
| 1777683651 | 13.89° C | 48% | 1021.8 hPa | 0 mm | - | 0 W/m² | - |
| 1777683051 | 13.89° C | 47% | 1021.8 hPa | 0 mm | - | 0 W/m² | - |
| 1777681852 | 15° C | 43% | 1021.9 hPa | 0 mm | - | 0 W/m² | - |
| 1777680655 | 14.44° C | 43% | 1022 hPa | 0 mm | - | 0 W/m² | - |
| 1777680056 | 14.44° C | 44% | 1022.2 hPa | 0 mm | - | 0 W/m² | - |
* Rain latest hour (hover to see other rain measurements)
** Current wind speed in m/s (hover to see current wind gust speed)